createdAt,value
2023-04-24T00:01:52.927Z,17.67
2023-04-24T00:04:27.099Z,14.30
2023-04-24T00:07:03.386Z,19.33
2023-04-24T00:09:31.783Z,15.27
2023-04-24T00:12:05.630Z,17.37
2023-04-24T00:14:37.305Z,17.37
2023-04-24T00:17:05.084Z,16.07
2023-04-24T00:19:32.093Z,15.50
2023-04-24T00:21:59.798Z,21.20
2023-04-24T00:24:31.046Z,14.97
2023-04-24T00:26:58.154Z,16.53
2023-04-24T00:29:24.817Z,18.03
2023-04-24T00:31:51.938Z,16.27
2023-04-24T00:34:19.276Z,17.20
2023-04-24T00:36:46.978Z,14.53
2023-04-24T00:39:13.749Z,14.03
2023-04-24T00:41:40.524Z,17.10
2023-04-24T00:44:07.368Z,20.53
2023-04-24T00:46:34.296Z,21.30
2023-04-24T00:49:01.223Z,21.60
2023-04-24T00:51:31.999Z,18.37
2023-04-24T00:53:58.936Z,18.40
2023-04-24T00:56:25.834Z,21.57
2023-04-24T00:58:52.816Z,14.93
2023-04-24T01:01:23.892Z,15.30
2023-04-24T01:03:52.681Z,20.63
2023-04-24T01:06:23.970Z,15.67
2023-04-24T01:08:51.015Z,22.10
2023-04-24T01:11:19.180Z,15.67
2023-04-24T01:13:46.193Z,23.30
2023-04-24T01:16:18.505Z,15.40
2023-04-24T01:18:45.506Z,14.77
2023-04-24T01:21:14.699Z,18.00
2023-04-24T01:23:44.679Z,16.20
2023-04-24T01:26:11.666Z,16.37
2023-04-24T01:28:38.749Z,13.27
2023-04-24T01:31:06.675Z,16.90
2023-04-24T01:33:33.675Z,19.83
2023-04-24T01:36:00.995Z,16.50
2023-04-24T01:38:28.414Z,12.90
2023-04-24T01:40:58.260Z,17.93
2023-04-24T01:43:25.718Z,12.73
2023-04-24T01:45:52.564Z,13.87
2023-04-24T01:48:19.362Z,10.97
2023-04-24T01:50:48.126Z,15.80
2023-04-24T01:53:14.872Z,12.13
2023-04-24T01:55:42.683Z,13.03
2023-04-24T01:58:09.605Z,14.50
2023-04-24T02:00:36.459Z,15.23
2023-04-24T02:03:03.723Z,12.37
2023-04-24T02:05:30.703Z,10.57
2023-04-24T02:08:00.107Z,11.50
2023-04-24T02:10:26.956Z,9.87
2023-04-24T02:12:53.636Z,10.83
2023-04-24T02:15:24.063Z,11.40
2023-04-24T02:17:50.920Z,10.43
2023-04-24T02:20:18.593Z,8.33
2023-04-24T02:22:46.115Z,11.60
2023-04-24T02:25:12.853Z,12.53
2023-04-24T02:27:39.704Z,12.33
2023-04-24T02:30:07.379Z,11.17
2023-04-24T02:32:34.974Z,13.83
2023-04-24T02:35:02.567Z,13.57
2023-04-24T02:37:29.344Z,13.07
2023-04-24T02:39:56.118Z,17.83
2023-04-24T02:42:22.900Z,12.03
2023-04-24T02:44:49.580Z,10.87
2023-04-24T02:47:16.367Z,16.07
2023-04-24T02:49:43.538Z,15.53
2023-04-24T02:52:11.751Z,15.17
2023-04-24T02:54:38.558Z,13.60
2023-04-24T02:57:05.542Z,13.43
2023-04-24T02:59:32.852Z,13.23
2023-04-24T03:01:59.796Z,13.17
2023-04-24T03:04:27.304Z,13.37
2023-04-24T03:06:55.777Z,13.47
2023-04-24T03:09:22.857Z,17.13
2023-04-24T03:11:50.462Z,15.83
2023-04-24T03:14:17.699Z,11.70
2023-04-24T03:16:44.596Z,16.77
2023-04-24T03:19:11.367Z,14.90
2023-04-24T03:21:46.761Z,14.50
2023-04-24T03:24:13.986Z,9.07
2023-04-24T03:26:41.494Z,10.30
2023-04-24T03:29:28.315Z,11.47
2023-04-24T03:31:57.209Z,10.70
2023-04-24T03:34:24.157Z,10.83
2023-04-24T03:36:51.299Z,9.83
2023-04-24T03:39:18.106Z,6.90
2023-04-24T03:41:52.221Z,9.03
2023-04-24T03:44:23.771Z,10.10
2023-04-24T03:46:51.055Z,9.97
2023-04-24T03:49:20.460Z,7.70
2023-04-24T03:51:48.525Z,10.23
2023-04-24T03:54:22.086Z,7.17
2023-04-24T03:56:50.731Z,10.90
2023-04-24T03:59:17.602Z,7.70
2023-04-24T04:01:49.050Z,8.57
2023-04-24T04:04:17.889Z,10.70
2023-04-24T04:06:45.672Z,8.57
2023-04-24T04:09:12.821Z,8.13
2023-04-24T04:11:39.473Z,9.33
2023-04-24T04:14:06.401Z,7.17
2023-04-24T04:16:35.373Z,6.43
2023-04-24T04:19:04.234Z,6.90
2023-04-24T04:21:32.426Z,6.33
2023-04-24T04:24:21.882Z,5.93
2023-04-24T04:26:52.064Z,5.67
2023-04-24T04:29:32.422Z,6.40
2023-04-24T04:32:00.603Z,8.03
2023-04-24T04:34:27.899Z,6.60
2023-04-24T04:36:54.799Z,7.70
2023-04-24T04:39:38.171Z,6.57
2023-04-24T04:42:12.648Z,5.00
2023-04-24T04:44:42.068Z,4.63
2023-04-24T04:47:13.172Z,5.00
2023-04-24T04:49:40.834Z,8.70
2023-04-24T04:52:13.599Z,4.37
2023-04-24T04:54:40.834Z,4.60
2023-04-24T04:57:07.725Z,4.13
2023-04-24T04:59:35.910Z,3.70
2023-04-24T05:02:07.271Z,7.67
2023-04-24T05:04:34.429Z,6.97
2023-04-24T05:07:01.510Z,7.60
2023-04-24T05:09:31.217Z,7.57
2023-04-24T05:12:03.236Z,6.57
2023-04-24T05:14:34.130Z,9.07
2023-04-24T05:17:01.372Z,9.63
2023-04-24T05:19:28.258Z,17.20
2023-04-24T05:21:55.350Z,11.90
2023-04-24T05:24:22.413Z,11.60
2023-04-24T05:27:27.534Z,10.47
2023-04-24T05:29:54.464Z,9.00
2023-04-24T05:32:21.691Z,9.03
2023-04-24T05:34:48.465Z,8.53
2023-04-24T05:37:15.414Z,9.77
2023-04-24T05:39:42.876Z,11.27
2023-04-24T05:42:10.564Z,9.13
2023-04-24T05:44:37.349Z,13.87
2023-04-24T05:47:05.012Z,12.03
2023-04-24T05:49:32.610Z,11.57
2023-04-24T05:51:59.560Z,10.27
2023-04-24T05:54:26.437Z,11.93
2023-04-24T05:56:55.496Z,11.70
2023-04-24T05:59:32.527Z,9.40
2023-04-24T06:01:59.398Z,8.37
2023-04-24T06:04:26.593Z,14.37
2023-04-24T06:06:56.972Z,13.37
2023-04-24T06:09:24.160Z,15.23
2023-04-24T06:11:53.940Z,13.37
2023-04-24T06:14:23.976Z,16.03
2023-04-24T06:17:17.438Z,12.63
2023-04-24T06:19:45.978Z,12.43
2023-04-24T06:22:13.183Z,16.70
2023-04-24T06:24:41.255Z,12.57
2023-04-24T06:27:08.691Z,15.67
2023-04-24T06:29:37.390Z,19.00
2023-04-24T06:32:04.166Z,16.73
2023-04-24T06:34:34.978Z,14.43
2023-04-24T06:37:03.272Z,18.43
2023-04-24T06:39:29.975Z,11.47
2023-04-24T06:41:57.060Z,12.93
2023-04-24T06:44:24.705Z,13.67
2023-04-24T06:46:51.490Z,20.73
2023-04-24T06:49:21.156Z,15.13
2023-04-24T06:51:48.126Z,16.03
2023-04-24T06:54:15.070Z,23.00
2023-04-24T06:56:41.847Z,16.03
2023-04-24T06:59:08.589Z,20.57
2023-04-24T07:01:36.439Z,21.80
2023-04-24T07:04:03.388Z,19.37
2023-04-24T07:06:31.577Z,21.93
2023-04-24T07:08:58.738Z,20.33
2023-04-24T07:11:25.719Z,17.13
2023-04-24T07:13:52.404Z,18.37
2023-04-24T07:16:19.253Z,22.33
2023-04-24T07:18:46.071Z,19.20
2023-04-24T07:21:12.869Z,23.13
2023-04-24T07:23:39.666Z,20.33
2023-04-24T07:26:06.605Z,19.53
2023-04-24T07:28:33.372Z,16.37
2023-04-24T07:31:01.016Z,17.17
2023-04-24T07:33:28.088Z,22.43
2023-04-24T07:35:56.736Z,24.47
2023-04-24T07:38:23.524Z,20.47
2023-04-24T07:40:50.451Z,20.37
2023-04-24T07:43:17.619Z,21.80
2023-04-24T07:45:44.610Z,23.73
2023-04-24T07:48:11.709Z,19.50
2023-04-24T07:50:41.368Z,24.23
2023-04-24T07:53:08.162Z,22.67
2023-04-24T07:55:34.918Z,25.43
2023-04-24T07:58:01.637Z,21.03
2023-04-24T08:00:28.474Z,18.47
2023-04-24T08:02:55.276Z,19.97
2023-04-24T08:05:22.585Z,18.60
2023-04-24T08:07:51.304Z,19.17
2023-04-24T08:10:18.439Z,19.03
2023-04-24T08:12:45.313Z,14.90
2023-04-24T08:15:12.324Z,19.97
2023-04-24T08:17:46.680Z,17.97
2023-04-24T08:20:16.528Z,20.03
2023-04-24T08:22:48.878Z,16.80
2023-04-24T08:25:15.926Z,17.70
2023-04-24T08:27:42.778Z,17.27
2023-04-24T08:30:09.972Z,18.83
2023-04-24T08:32:37.793Z,14.83
2023-04-24T08:35:05.693Z,9.07
2023-04-24T08:37:32.674Z,15.00
2023-04-24T08:39:59.494Z,10.97
2023-04-24T08:42:29.649Z,11.47
2023-04-24T08:44:57.645Z,10.67
2023-04-24T08:47:25.904Z,14.23
2023-04-24T08:49:53.223Z,18.03
2023-04-24T08:52:21.212Z,14.90
2023-04-24T08:54:48.735Z,12.17
2023-04-24T08:57:16.107Z,22.07
2023-04-24T08:59:43.466Z,19.50
2023-04-24T09:02:12.731Z,13.57
2023-04-24T09:04:40.595Z,16.93
2023-04-24T09:07:08.032Z,13.70
2023-04-24T09:09:36.253Z,14.47
2023-04-24T09:12:05.046Z,17.77
2023-04-24T09:14:33.106Z,11.47
2023-04-24T09:17:00.306Z,12.53
2023-04-24T09:19:27.216Z,14.60
2023-04-24T09:21:54.855Z,18.50
2023-04-24T09:24:25.917Z,11.40
2023-04-24T09:27:00.331Z,9.20
2023-04-24T09:29:27.088Z,15.27
2023-04-24T09:31:54.103Z,17.23
2023-04-24T09:34:26.262Z,10.93
2023-04-24T09:36:53.354Z,14.90
2023-04-24T09:39:23.541Z,12.17
2023-04-24T09:41:55.333Z,17.77
2023-04-24T09:44:23.593Z,13.27
2023-04-24T09:46:55.782Z,10.33
2023-04-24T09:49:34.360Z,12.20
2023-04-24T09:52:09.434Z,15.07
2023-04-24T09:54:38.265Z,9.23
2023-04-24T09:57:05.414Z,10.50
2023-04-24T09:59:32.272Z,7.73
2023-04-24T10:02:00.733Z,7.50
2023-04-24T10:04:29.932Z,11.30
2023-04-24T10:06:57.996Z,6.90
2023-04-24T10:09:27.274Z,8.97
2023-04-24T10:11:55.064Z,5.87
2023-04-24T10:14:23.372Z,6.77
2023-04-24T10:16:51.237Z,6.40
2023-04-24T10:19:21.375Z,21.93
2023-04-24T10:21:48.971Z,6.53
2023-04-24T10:24:21.440Z,9.13
2023-04-24T10:26:51.768Z,10.07
2023-04-24T10:29:20.473Z,9.13
2023-04-24T10:31:47.948Z,7.57
2023-04-24T10:34:16.993Z,12.33
2023-04-24T10:36:47.464Z,8.67
2023-04-24T10:39:16.066Z,11.13
2023-04-24T10:41:42.801Z,7.97
2023-04-24T10:44:11.352Z,10.13
2023-04-24T10:46:38.883Z,7.50
2023-04-24T10:49:09.854Z,9.87
2023-04-24T10:51:49.570Z,7.40
2023-04-24T10:54:36.224Z,11.07
2023-04-24T10:57:24.397Z,8.30
2023-04-24T10:59:53.214Z,7.63
2023-04-24T11:02:41.252Z,6.23
2023-04-24T11:05:08.546Z,8.47
2023-04-24T11:08:17.702Z,6.17
2023-04-24T11:10:48.596Z,8.43
2023-04-24T11:13:17.309Z,10.20
2023-04-24T11:15:44.230Z,7.70
2023-04-24T11:18:16.531Z,6.53
2023-04-24T11:20:44.673Z,6.53
2023-04-24T11:23:13.610Z,8.40
2023-04-24T11:25:40.342Z,5.90
2023-04-24T11:28:07.369Z,6.73
2023-04-24T11:30:34.884Z,7.13
2023-04-24T11:33:05.608Z,9.80
2023-04-24T11:35:38.741Z,8.43
2023-04-24T11:40:36.235Z,5.27
2023-04-24T11:43:07.661Z,7.57
2023-04-24T11:45:34.897Z,8.90
2023-04-24T11:48:04.517Z,8.03
2023-04-24T11:50:31.956Z,7.13
2023-04-24T11:53:01.535Z,10.23
2023-04-24T11:55:29.527Z,9.27
2023-04-24T11:57:58.226Z,5.00
2023-04-24T12:00:27.691Z,5.07
2023-04-24T12:03:06.647Z,6.27
2023-04-24T12:05:34.052Z,5.93
2023-04-24T12:08:00.785Z,9.43
2023-04-24T12:10:29.978Z,7.80
2023-04-24T12:12:57.775Z,5.53
2023-04-24T12:15:27.627Z,4.90
2023-04-24T12:17:55.677Z,8.80
2023-04-24T12:20:31.807Z,5.50
2023-04-24T12:22:59.872Z,3.43
2023-04-24T12:25:31.299Z,7.97
2023-04-24T12:28:03.961Z,8.80
2023-04-24T12:30:32.737Z,8.27
2023-04-24T12:33:00.658Z,8.03
2023-04-24T12:35:29.448Z,5.03
2023-04-24T12:38:00.718Z,7.40
2023-04-24T12:40:27.446Z,7.80
2023-04-24T12:42:55.242Z,6.33
2023-04-24T12:45:24.904Z,7.30
2023-04-24T12:47:51.659Z,8.50
2023-04-24T12:50:18.877Z,3.33
2023-04-24T12:52:49.187Z,5.60
2023-04-24T12:55:16.507Z,3.00
2023-04-24T12:57:43.648Z,6.80
2023-04-24T13:00:11.118Z,7.77
2023-04-24T13:02:38.534Z,12.93
2023-04-24T13:05:05.680Z,5.00
2023-04-24T13:07:32.500Z,3.27
2023-04-24T13:09:59.277Z,3.20
2023-04-24T13:12:28.509Z,7.00
2023-04-24T13:14:55.280Z,6.97
2023-04-24T13:17:22.878Z,6.27
2023-04-24T13:19:51.218Z,7.83
2023-04-24T13:22:19.719Z,10.63
2023-04-24T13:24:47.195Z,6.97
2023-04-24T13:27:14.138Z,7.10
2023-04-24T13:29:41.326Z,5.80
2023-04-24T13:32:09.127Z,5.50
2023-04-24T13:34:36.200Z,5.87
2023-04-24T13:37:04.730Z,7.13
2023-04-24T13:39:31.597Z,4.67
2023-04-24T13:41:59.159Z,5.53
2023-04-24T13:44:26.231Z,3.43
2023-04-24T13:46:55.328Z,4.27
2023-04-24T13:49:22.775Z,4.17
2023-04-24T13:51:49.714Z,4.67
2023-04-24T13:54:16.417Z,5.53
2023-04-24T13:56:43.287Z,6.67
2023-04-24T13:59:10.180Z,7.03
2023-04-24T14:01:37.126Z,5.23
2023-04-24T14:04:03.993Z,8.63
2023-04-24T14:06:30.858Z,7.87
2023-04-24T14:08:57.883Z,3.37
2023-04-24T14:11:24.755Z,4.30
2023-04-24T14:13:51.993Z,5.47
2023-04-24T14:16:18.748Z,5.33
2023-04-24T14:18:45.662Z,5.63
2023-04-24T14:21:12.337Z,4.30
2023-04-24T14:23:39.052Z,5.33
2023-04-24T14:26:05.900Z,6.63
2023-04-24T14:28:33.465Z,4.93
2023-04-24T14:31:00.167Z,5.00
2023-04-24T14:33:26.827Z,4.33
2023-04-24T14:35:53.552Z,3.13
2023-04-24T14:38:20.334Z,2.77
2023-04-24T14:43:16.656Z,5.53
2023-04-24T14:45:44.737Z,3.00
2023-04-24T14:48:12.339Z,3.17
2023-04-24T14:50:39.115Z,5.17
2023-04-24T14:53:06.373Z,9.23
2023-04-24T14:55:34.304Z,6.93
2023-04-24T14:58:01.118Z,5.07
2023-04-24T15:00:27.958Z,4.70
2023-04-24T15:02:56.404Z,5.37
2023-04-24T15:05:23.944Z,4.50
2023-04-24T15:07:50.996Z,7.13
2023-04-24T15:10:18.669Z,3.27
2023-04-24T15:12:47.212Z,7.60
2023-04-24T15:15:13.991Z,3.37
2023-04-24T15:17:40.947Z,6.77
2023-04-24T15:20:08.671Z,5.03
2023-04-24T15:22:35.903Z,3.20
2023-04-24T15:25:03.769Z,4.53
2023-04-24T15:27:41.532Z,5.07
2023-04-24T15:30:09.065Z,2.07
2023-04-24T15:32:35.901Z,4.67
2023-04-24T15:35:08.526Z,2.50
2023-04-24T15:37:36.351Z,5.73
2023-04-24T15:40:05.603Z,4.20
2023-04-24T15:42:32.446Z,6.10
2023-04-24T15:44:59.262Z,3.73
2023-04-24T15:47:26.606Z,3.43
2023-04-24T15:49:54.364Z,5.13
2023-04-24T15:52:21.780Z,4.00
2023-04-24T15:54:48.681Z,3.13
2023-04-24T15:57:15.643Z,3.40
2023-04-24T15:59:42.552Z,4.47
2023-04-24T16:02:19.179Z,1.80
2023-04-24T16:04:47.344Z,2.30
2023-04-24T16:07:20.614Z,4.97
2023-04-24T16:09:47.543Z,9.53
2023-04-24T16:12:14.852Z,7.93
2023-04-24T16:14:47.285Z,3.93
2023-04-24T16:17:14.612Z,5.77
2023-04-24T16:19:41.292Z,4.67
2023-04-24T16:22:08.112Z,5.13
2023-04-24T16:24:35.489Z,2.43
2023-04-24T16:27:02.250Z,5.03
2023-04-24T16:29:29.058Z,3.00
2023-04-24T16:31:55.939Z,3.43
2023-04-24T16:34:22.750Z,3.00
2023-04-24T16:36:49.505Z,3.97
2023-04-24T16:39:16.487Z,5.33
2023-04-24T16:41:43.630Z,1.63
2023-04-24T16:44:10.399Z,2.63
2023-04-24T16:46:37.878Z,2.77
2023-04-24T16:49:04.660Z,2.90
2023-04-24T16:51:31.997Z,4.23
2023-04-24T16:53:58.775Z,4.20
2023-04-24T16:56:25.609Z,5.10
2023-04-24T16:58:52.425Z,4.60
2023-04-24T17:01:19.610Z,5.73
2023-04-24T17:03:47.591Z,3.57
2023-04-24T17:06:14.446Z,3.00
2023-04-24T17:08:41.403Z,6.60
2023-04-24T17:11:08.334Z,2.23
2023-04-24T17:13:35.413Z,3.60
2023-04-24T17:16:02.322Z,3.60
2023-04-24T17:18:29.145Z,3.53
2023-04-24T17:20:56.018Z,5.07
2023-04-24T17:23:22.790Z,4.97
2023-04-24T17:25:49.633Z,4.47
2023-04-24T17:28:26.733Z,2.77
2023-04-24T17:30:58.064Z,3.33
2023-04-24T17:33:26.098Z,2.63
2023-04-24T17:35:52.955Z,1.67
2023-04-24T17:38:19.784Z,2.10
2023-04-24T17:40:46.707Z,3.77
2023-04-24T17:43:18.081Z,5.57
2023-04-24T17:45:49.269Z,2.67
2023-04-24T17:48:16.750Z,2.27
2023-04-24T17:50:43.470Z,4.47
2023-04-24T17:53:11.090Z,4.23
2023-04-24T17:55:39.174Z,2.13
2023-04-24T17:58:06.455Z,2.03
2023-04-24T18:00:34.595Z,2.53
2023-04-24T18:03:03.591Z,3.13
2023-04-24T18:05:35.514Z,3.53
2023-04-24T18:08:02.617Z,2.83
2023-04-24T18:10:31.692Z,3.73
2023-04-24T18:12:59.177Z,2.60
2023-04-24T18:15:26.467Z,5.00
2023-04-24T18:17:53.308Z,3.23
2023-04-24T18:20:20.839Z,2.43
2023-04-24T18:22:47.952Z,3.73
2023-04-24T18:25:15.359Z,3.13
2023-04-24T18:27:42.665Z,4.07
2023-04-24T18:30:13.721Z,5.73
2023-04-24T18:32:41.920Z,5.33
2023-04-24T18:35:09.277Z,4.13
2023-04-24T18:37:36.293Z,6.13
2023-04-24T18:40:05.158Z,4.03
2023-04-24T18:42:33.242Z,6.53
2023-04-24T18:45:01.729Z,4.47
2023-04-24T18:47:29.171Z,6.50
2023-04-24T18:49:56.404Z,6.87
2023-04-24T18:52:23.933Z,6.23
2023-04-24T18:54:51.022Z,6.23
2023-04-24T18:57:17.839Z,9.50
2023-04-24T18:59:44.612Z,6.43
2023-04-24T19:02:11.846Z,5.43
2023-04-24T19:04:38.691Z,6.70
2023-04-24T19:07:05.611Z,8.67
2023-04-24T19:09:32.446Z,6.27
2023-04-24T19:12:00.263Z,6.53
2023-04-24T19:14:27.098Z,7.30
2023-04-24T19:16:53.981Z,4.83
2023-04-24T19:19:21.551Z,6.70
2023-04-24T19:21:48.445Z,5.87
2023-04-24T19:24:15.385Z,7.43
2023-04-24T19:26:42.223Z,10.33
2023-04-24T19:29:08.879Z,7.40
2023-04-24T19:31:35.796Z,8.07
2023-04-24T19:34:02.554Z,11.23
2023-04-24T19:36:30.101Z,10.63
2023-04-24T19:38:56.853Z,6.23
2023-04-24T19:41:23.836Z,12.47
2023-04-24T19:43:50.797Z,8.40
2023-04-24T19:46:17.962Z,9.40
2023-04-24T19:48:44.762Z,12.03
2023-04-24T19:51:11.489Z,7.60
2023-04-24T19:53:38.281Z,12.07
2023-04-24T19:56:05.243Z,8.87
2023-04-24T19:58:31.877Z,7.20
2023-04-24T20:00:58.753Z,8.30
2023-04-24T20:03:33.429Z,4.80
2023-04-24T20:06:00.956Z,7.77
2023-04-24T20:08:27.706Z,4.50
2023-04-24T20:10:57.647Z,8.47
2023-04-24T20:13:28.264Z,10.60
2023-04-24T20:15:55.144Z,12.90
2023-04-24T20:18:22.030Z,7.47
2023-04-24T20:20:49.038Z,5.60
2023-04-24T20:23:24.593Z,6.77
2023-04-24T20:25:57.960Z,7.90
2023-04-24T20:28:28.470Z,8.80
2023-04-24T20:31:20.063Z,4.80
2023-04-24T20:33:47.080Z,9.80
2023-04-24T20:36:17.168Z,9.60
2023-04-24T20:38:44.040Z,9.90
2023-04-24T20:41:10.852Z,9.60
2023-04-24T20:43:37.619Z,7.77
2023-04-24T20:46:04.716Z,8.53
2023-04-24T20:48:31.732Z,7.77
2023-04-24T20:51:00.871Z,9.57
2023-04-24T20:53:28.953Z,5.57
2023-04-24T20:55:55.880Z,5.97
2023-04-24T20:58:24.037Z,9.63
2023-04-24T21:00:51.784Z,8.47
2023-04-24T21:03:18.862Z,8.77
2023-04-24T21:05:45.936Z,7.50
2023-04-24T21:08:13.022Z,6.80
2023-04-24T21:10:40.123Z,7.63
2023-04-24T21:13:09.215Z,6.70
2023-04-24T21:15:36.221Z,11.63
2023-04-24T21:18:03.675Z,9.20
2023-04-24T21:20:33.063Z,10.97
2023-04-24T21:23:02.984Z,9.20
2023-04-24T21:25:30.277Z,8.23
2023-04-24T21:27:58.557Z,8.70
2023-04-24T21:30:25.668Z,8.27
2023-04-24T21:32:55.041Z,9.77
2023-04-24T21:35:21.918Z,9.67
2023-04-24T21:37:48.738Z,9.00
2023-04-24T21:40:16.065Z,7.03
2023-04-24T21:42:43.348Z,7.40
2023-04-24T21:45:10.730Z,10.77
2023-04-24T21:47:37.710Z,9.87
2023-04-24T21:50:05.625Z,11.93
2023-04-24T21:52:32.645Z,12.87
2023-04-24T21:54:59.406Z,13.53
2023-04-24T21:57:28.517Z,9.50
2023-04-24T21:59:55.929Z,4.87
2023-04-24T22:02:22.812Z,7.37
2023-04-24T22:04:50.484Z,7.13
2023-04-24T22:07:17.552Z,12.07
2023-04-24T22:09:44.435Z,14.17
2023-04-24T22:12:11.244Z,10.67
2023-04-24T22:14:38.234Z,11.37
2023-04-24T22:17:09.616Z,8.13
2023-04-24T22:19:36.424Z,8.50
2023-04-24T22:22:03.206Z,13.53
2023-04-24T22:24:29.996Z,7.77
2023-04-24T22:26:56.955Z,4.80
2023-04-24T22:29:24.441Z,7.50
2023-04-24T22:31:51.706Z,6.27
2023-04-24T22:34:19.708Z,6.57
2023-04-24T22:36:46.536Z,10.90
2023-04-24T22:39:15.892Z,9.07
2023-04-24T22:41:43.014Z,10.43
2023-04-24T22:44:11.057Z,12.63
2023-04-24T22:46:38.101Z,8.03
2023-04-24T22:49:05.212Z,9.93
2023-04-24T22:51:35.270Z,10.13
2023-04-24T22:54:04.252Z,10.63
2023-04-24T22:56:31.770Z,10.90
2023-04-24T22:58:58.892Z,14.43
2023-04-24T23:01:33.389Z,12.17
2023-04-24T23:04:00.314Z,9.23
2023-04-24T23:06:27.081Z,9.50
2023-04-24T23:08:53.974Z,11.83
2023-04-24T23:11:22.028Z,9.40
2023-04-24T23:13:49.794Z,10.47
2023-04-24T23:16:16.868Z,12.27
2023-04-24T23:18:43.549Z,19.90
2023-04-24T23:21:10.427Z,12.67
2023-04-24T23:23:37.540Z,17.97
2023-04-24T23:26:04.327Z,13.50
2023-04-24T23:28:31.189Z,15.10
2023-04-24T23:30:57.934Z,12.87
2023-04-24T23:33:24.816Z,11.63
2023-04-24T23:35:52.686Z,15.93
2023-04-24T23:38:19.851Z,9.53
2023-04-24T23:40:46.659Z,10.63
2023-04-24T23:43:13.483Z,12.63
2023-04-24T23:45:40.635Z,14.23
2023-04-24T23:48:07.579Z,13.47
2023-04-24T23:50:34.684Z,11.43
2023-04-24T23:53:01.510Z,15.10
2023-04-24T23:55:28.487Z,17.07
2023-04-24T23:57:55.613Z,14.63
